sensor_id;sensor_type;location;lat;lon;timestamp;P1;durP1;ratioP1;P2;durP2;ratioP2
72439;SDS011;60446;50.752;4.352;2023-05-10T00:01:49;11.50;;;3.70;;
72439;SDS011;60446;50.752;4.352;2023-05-10T00:04:16;12.73;;;3.97;;
72439;SDS011;60446;50.752;4.352;2023-05-10T00:06:44;14.82;;;3.70;;
72439;SDS011;60446;50.752;4.352;2023-05-10T00:09:11;13.02;;;3.55;;
72439;SDS011;60446;50.752;4.352;2023-05-10T00:11:38;14.43;;;3.37;;
72439;SDS011;60446;50.752;4.352;2023-05-10T00:14:05;13.45;;;3.50;;
72439;SDS011;60446;50.752;4.352;2023-05-10T00:16:32;13.70;;;3.33;;
72439;SDS011;60446;50.752;4.352;2023-05-10T00:18:59;11.82;;;3.40;;
72439;SDS011;60446;50.752;4.352;2023-05-10T00:21:26;12.60;;;3.33;;
72439;SDS011;60446;50.752;4.352;2023-05-10T00:23:54;11.43;;;2.80;;
72439;SDS011;60446;50.752;4.352;2023-05-10T00:26:21;12.45;;;3.28;;
72439;SDS011;60446;50.752;4.352;2023-05-10T00:28:51;11.98;;;3.47;;
72439;SDS011;60446;50.752;4.352;2023-05-10T00:31:19;14.93;;;3.95;;
72439;SDS011;60446;50.752;4.352;2023-05-10T00:33:46;11.85;;;3.95;;
72439;SDS011;60446;50.752;4.352;2023-05-10T00:36:13;13.33;;;3.33;;
72439;SDS011;60446;50.752;4.352;2023-05-10T00:38:40;12.77;;;3.50;;
72439;SDS011;60446;50.752;4.352;2023-05-10T00:41:07;14.77;;;4.10;;
72439;SDS011;60446;50.752;4.352;2023-05-10T00:43:36;13.57;;;4.22;;
72439;SDS011;60446;50.752;4.352;2023-05-10T00:46:03;14.90;;;4.55;;
72439;SDS011;60446;50.752;4.352;2023-05-10T00:48:31;13.90;;;3.90;;
72439;SDS011;60446;50.752;4.352;2023-05-10T00:50:58;10.93;;;3.60;;
72439;SDS011;60446;50.752;4.352;2023-05-10T00:53:25;14.02;;;4.85;;
72439;SDS011;60446;50.752;4.352;2023-05-10T00:55:53;16.40;;;4.20;;
72439;SDS011;60446;50.752;4.352;2023-05-10T00:58:20;14.27;;;4.63;;
72439;SDS011;60446;50.752;4.352;2023-05-10T01:00:49;13.07;;;4.27;;
72439;SDS011;60446;50.752;4.352;2023-05-10T01:03:18;13.10;;;4.45;;
72439;SDS011;60446;50.752;4.352;2023-05-10T01:05:46;13.20;;;4.15;;
72439;SDS011;60446;50.752;4.352;2023-05-10T01:08:13;15.93;;;4.70;;
72439;SDS011;60446;50.752;4.352;2023-05-10T01:10:41;17.55;;;5.68;;
72439;SDS011;60446;50.752;4.352;2023-05-10T01:13:09;18.43;;;4.67;;
72439;SDS011;60446;50.752;4.352;2023-05-10T01:15:37;14.05;;;4.55;;
72439;SDS011;60446;50.752;4.352;2023-05-10T01:18:06;16.33;;;5.30;;
72439;SDS011;60446;50.752;4.352;2023-05-10T01:20:35;18.63;;;5.45;;
72439;SDS011;60446;50.752;4.352;2023-05-10T01:23:11;17.33;;;5.25;;
72439;SDS011;60446;50.752;4.352;2023-05-10T01:40:48;17.97;;;5.53;;
72439;SDS011;60446;50.752;4.352;2023-05-10T01:43:26;15.35;;;5.03;;
72439;SDS011;60446;50.752;4.352;2023-05-10T01:46:00;20.48;;;5.40;;
72439;SDS011;60446;50.752;4.352;2023-05-10T01:48:41;18.23;;;5.32;;
72439;SDS011;60446;50.752;4.352;2023-05-10T01:51:19;15.65;;;5.18;;
72439;SDS011;60446;50.752;4.352;2023-05-10T01:53:54;16.40;;;5.63;;
72439;SDS011;60446;50.752;4.352;2023-05-10T01:56:29;18.45;;;5.80;;
72439;SDS011;60446;50.752;4.352;2023-05-10T01:58:58;18.60;;;5.85;;
72439;SDS011;60446;50.752;4.352;2023-05-10T02:01:33;21.13;;;6.70;;
72439;SDS011;60446;50.752;4.352;2023-05-10T02:04:03;18.10;;;5.18;;
72439;SDS011;60446;50.752;4.352;2023-05-10T02:06:33;19.40;;;5.20;;
72439;SDS011;60446;50.752;4.352;2023-05-10T02:09:01;16.33;;;5.40;;
72439;SDS011;60446;50.752;4.352;2023-05-10T02:11:29;18.40;;;5.97;;
72439;SDS011;60446;50.752;4.352;2023-05-10T02:13:57;19.75;;;6.35;;
72439;SDS011;60446;50.752;4.352;2023-05-10T02:16:27;18.35;;;5.60;;
72439;SDS011;60446;50.752;4.352;2023-05-10T02:18:58;15.30;;;4.90;;
72439;SDS011;60446;50.752;4.352;2023-05-10T02:21:28;21.30;;;5.68;;
72439;SDS011;60446;50.752;4.352;2023-05-10T02:23:57;17.80;;;5.90;;
72439;SDS011;60446;50.752;4.352;2023-05-10T02:26:27;16.67;;;5.13;;
72439;SDS011;60446;50.752;4.352;2023-05-10T02:28:56;17.45;;;5.32;;
72439;SDS011;60446;50.752;4.352;2023-05-10T02:31:24;19.90;;;5.77;;
72439;SDS011;60446;50.752;4.352;2023-05-10T02:33:52;17.42;;;5.57;;
72439;SDS011;60446;50.752;4.352;2023-05-10T02:36:20;22.98;;;6.18;;
72439;SDS011;60446;50.752;4.352;2023-05-10T02:38:49;24.02;;;6.53;;
72439;SDS011;60446;50.752;4.352;2023-05-10T02:41:18;19.48;;;6.13;;
72439;SDS011;60446;50.752;4.352;2023-05-10T02:43:50;19.73;;;5.83;;
72439;SDS011;60446;50.752;4.352;2023-05-10T02:46:18;19.05;;;5.95;;
72439;SDS011;60446;50.752;4.352;2023-05-10T02:48:46;22.92;;;6.63;;
72439;SDS011;60446;50.752;4.352;2023-05-10T02:51:13;19.45;;;5.82;;
72439;SDS011;60446;50.752;4.352;2023-05-10T02:53:45;24.83;;;7.20;;
72439;SDS011;60446;50.752;4.352;2023-05-10T02:56:16;19.10;;;5.77;;
72439;SDS011;60446;50.752;4.352;2023-05-10T02:58:52;24.13;;;6.45;;
72439;SDS011;60446;50.752;4.352;2023-05-10T03:01:19;22.15;;;7.07;;
72439;SDS011;60446;50.752;4.352;2023-05-10T03:03:46;25.30;;;6.32;;
72439;SDS011;60446;50.752;4.352;2023-05-10T03:06:13;22.38;;;6.47;;
72439;SDS011;60446;50.752;4.352;2023-05-10T03:08:43;22.90;;;6.50;;
72439;SDS011;60446;50.752;4.352;2023-05-10T03:11:28;22.17;;;6.43;;
72439;SDS011;60446;50.752;4.352;2023-05-10T03:20:09;19.38;;;6.80;;
72439;SDS011;60446;50.752;4.352;2023-05-10T03:22:44;22.80;;;5.87;;
72439;SDS011;60446;50.752;4.352;2023-05-10T03:25:16;21.63;;;6.85;;
72439;SDS011;60446;50.752;4.352;2023-05-10T03:27:47;20.60;;;7.13;;
72439;SDS011;60446;50.752;4.352;2023-05-10T03:30:16;21.65;;;6.93;;
72439;SDS011;60446;50.752;4.352;2023-05-10T03:32:45;22.05;;;6.70;;
72439;SDS011;60446;50.752;4.352;2023-05-10T03:35:15;22.10;;;6.23;;
72439;SDS011;60446;50.752;4.352;2023-05-10T03:37:43;28.52;;;7.28;;
72439;SDS011;60446;50.752;4.352;2023-05-10T03:40:10;27.38;;;6.70;;
72439;SDS011;60446;50.752;4.352;2023-05-10T03:42:40;22.27;;;6.63;;
72439;SDS011;60446;50.752;4.352;2023-05-10T03:45:07;24.23;;;6.43;;
72439;SDS011;60446;50.752;4.352;2023-05-10T03:47:36;19.83;;;5.67;;
72439;SDS011;60446;50.752;4.352;2023-05-10T03:50:03;22.70;;;6.45;;
72439;SDS011;60446;50.752;4.352;2023-05-10T03:52:31;25.65;;;7.05;;
72439;SDS011;60446;50.752;4.352;2023-05-10T03:54:59;21.63;;;6.38;;
72439;SDS011;60446;50.752;4.352;2023-05-10T03:57:26;25.25;;;6.55;;
72439;SDS011;60446;50.752;4.352;2023-05-10T03:59:54;25.43;;;7.80;;
72439;SDS011;60446;50.752;4.352;2023-05-10T04:02:22;22.08;;;7.10;;
72439;SDS011;60446;50.752;4.352;2023-05-10T04:04:49;22.63;;;6.10;;
72439;SDS011;60446;50.752;4.352;2023-05-10T04:07:17;26.58;;;6.65;;
72439;SDS011;60446;50.752;4.352;2023-05-10T04:09:44;26.00;;;7.50;;
72439;SDS011;60446;50.752;4.352;2023-05-10T04:12:11;23.13;;;5.97;;
72439;SDS011;60446;50.752;4.352;2023-05-10T04:14:38;19.38;;;5.50;;
72439;SDS011;60446;50.752;4.352;2023-05-10T04:17:05;22.48;;;7.38;;
72439;SDS011;60446;50.752;4.352;2023-05-10T04:19:33;22.85;;;7.28;;
72439;SDS011;60446;50.752;4.352;2023-05-10T04:22:01;21.05;;;6.13;;
72439;SDS011;60446;50.752;4.352;2023-05-10T04:24:29;21.37;;;6.40;;
72439;SDS011;60446;50.752;4.352;2023-05-10T04:26:56;19.67;;;5.13;;
72439;SDS011;60446;50.752;4.352;2023-05-10T04:29:23;20.77;;;6.03;;
72439;SDS011;60446;50.752;4.352;2023-05-10T04:31:50;15.57;;;5.20;;
72439;SDS011;60446;50.752;4.352;2023-05-10T04:34:17;13.43;;;4.93;;
72439;SDS011;60446;50.752;4.352;2023-05-10T04:36:46;13.63;;;4.40;;
72439;SDS011;60446;50.752;4.352;2023-05-10T04:39:14;15.95;;;4.22;;
72439;SDS011;60446;50.752;4.352;2023-05-10T04:41:41;12.63;;;3.42;;
72439;SDS011;60446;50.752;4.352;2023-05-10T04:44:08;11.75;;;3.25;;
72439;SDS011;60446;50.752;4.352;2023-05-10T04:46:35;9.05;;;2.72;;
72439;SDS011;60446;50.752;4.352;2023-05-10T04:49:02;10.87;;;2.93;;
72439;SDS011;60446;50.752;4.352;2023-05-10T04:51:29;9.10;;;2.83;;
72439;SDS011;60446;50.752;4.352;2023-05-10T04:53:57;9.25;;;2.72;;
72439;SDS011;60446;50.752;4.352;2023-05-10T04:56:32;10.70;;;2.80;;
72439;SDS011;60446;50.752;4.352;2023-05-10T04:58:59;14.25;;;3.47;;
72439;SDS011;60446;50.752;4.352;2023-05-10T05:01:27;10.47;;;2.50;;
72439;SDS011;60446;50.752;4.352;2023-05-10T05:03:54;12.10;;;2.40;;
72439;SDS011;60446;50.752;4.352;2023-05-10T05:06:21;10.95;;;2.40;;
72439;SDS011;60446;50.752;4.352;2023-05-10T05:08:48;9.35;;;2.35;;
72439;SDS011;60446;50.752;4.352;2023-05-10T05:11:16;8.27;;;2.00;;
72439;SDS011;60446;50.752;4.352;2023-05-10T05:13:44;9.53;;;2.87;;
72439;SDS011;60446;50.752;4.352;2023-05-10T05:16:11;9.10;;;2.63;;
72439;SDS011;60446;50.752;4.352;2023-05-10T05:18:38;7.97;;;1.85;;
72439;SDS011;60446;50.752;4.352;2023-05-10T05:21:15;8.52;;;2.42;;
72439;SDS011;60446;50.752;4.352;2023-05-10T05:23:43;9.35;;;2.38;;
72439;SDS011;60446;50.752;4.352;2023-05-10T05:26:10;9.63;;;2.80;;
72439;SDS011;60446;50.752;4.352;2023-05-10T05:28:38;10.98;;;2.50;;
72439;SDS011;60446;50.752;4.352;2023-05-10T05:31:05;7.95;;;2.17;;
72439;SDS011;60446;50.752;4.352;2023-05-10T05:33:34;9.48;;;2.30;;
72439;SDS011;60446;50.752;4.352;2023-05-10T05:36:04;8.80;;;2.40;;
72439;SDS011;60446;50.752;4.352;2023-05-10T05:38:32;10.03;;;2.63;;
72439;SDS011;60446;50.752;4.352;2023-05-10T05:40:59;11.65;;;2.85;;
72439;SDS011;60446;50.752;4.352;2023-05-10T05:43:27;12.00;;;2.28;;
72439;SDS011;60446;50.752;4.352;2023-05-10T05:45:54;8.52;;;2.33;;
72439;SDS011;60446;50.752;4.352;2023-05-10T05:48:24;11.40;;;2.70;;
72439;SDS011;60446;50.752;4.352;2023-05-10T05:50:55;8.83;;;2.00;;
72439;SDS011;60446;50.752;4.352;2023-05-10T05:53:23;10.48;;;2.50;;
72439;SDS011;60446;50.752;4.352;2023-05-10T05:55:54;9.23;;;2.03;;
72439;SDS011;60446;50.752;4.352;2023-05-10T05:58:22;7.82;;;1.80;;
72439;SDS011;60446;50.752;4.352;2023-05-10T06:00:50;10.50;;;2.40;;
72439;SDS011;60446;50.752;4.352;2023-05-10T06:03:18;5.83;;;1.50;;
72439;SDS011;60446;50.752;4.352;2023-05-10T06:05:46;10.00;;;1.67;;
72439;SDS011;60446;50.752;4.352;2023-05-10T06:08:14;7.35;;;1.20;;
72439;SDS011;60446;50.752;4.352;2023-05-10T06:10:41;5.05;;;1.10;;
72439;SDS011;60446;50.752;4.352;2023-05-10T06:13:08;5.20;;;1.45;;
72439;SDS011;60446;50.752;4.352;2023-05-10T06:15:35;8.40;;;1.40;;
72439;SDS011;60446;50.752;4.352;2023-05-10T06:18:02;5.40;;;1.40;;
72439;SDS011;60446;50.752;4.352;2023-05-10T06:20:30;6.72;;;1.55;;
72439;SDS011;60446;50.752;4.352;2023-05-10T06:23:00;5.13;;;1.10;;
72439;SDS011;60446;50.752;4.352;2023-05-10T06:25:27;6.68;;;1.35;;
72439;SDS011;60446;50.752;4.352;2023-05-10T06:27:54;5.37;;;1.40;;
72439;SDS011;60446;50.752;4.352;2023-05-10T06:30:24;5.68;;;1.33;;
72439;SDS011;60446;50.752;4.352;2023-05-10T06:32:55;5.78;;;1.52;;
72439;SDS011;60446;50.752;4.352;2023-05-10T06:35:23;4.72;;;1.30;;
72439;SDS011;60446;50.752;4.352;2023-05-10T06:37:50;7.40;;;1.42;;
72439;SDS011;60446;50.752;4.352;2023-05-10T06:40:18;6.73;;;1.43;;
72439;SDS011;60446;50.752;4.352;2023-05-10T06:42:46;5.80;;;0.90;;
72439;SDS011;60446;50.752;4.352;2023-05-10T06:45:16;5.53;;;1.20;;
72439;SDS011;60446;50.752;4.352;2023-05-10T06:47:44;5.63;;;1.30;;
72439;SDS011;60446;50.752;4.352;2023-05-10T06:50:12;4.70;;;1.08;;
72439;SDS011;60446;50.752;4.352;2023-05-10T06:52:39;6.17;;;1.53;;
72439;SDS011;60446;50.752;4.352;2023-05-10T06:55:06;7.72;;;1.58;;
72439;SDS011;60446;50.752;4.352;2023-05-10T06:57:35;5.13;;;1.52;;
72439;SDS011;60446;50.752;4.352;2023-05-10T07:00:02;7.63;;;1.60;;
72439;SDS011;60446;50.752;4.352;2023-05-10T07:02:33;5.93;;;1.40;;
72439;SDS011;60446;50.752;4.352;2023-05-10T07:05:00;5.73;;;1.20;;
72439;SDS011;60446;50.752;4.352;2023-05-10T07:07:40;7.82;;;1.95;;
72439;SDS011;60446;50.752;4.352;2023-05-10T07:10:07;5.32;;;1.85;;
72439;SDS011;60446;50.752;4.352;2023-05-10T07:12:35;6.65;;;1.92;;
72439;SDS011;60446;50.752;4.352;2023-05-10T07:15:03;5.45;;;1.50;;
72439;SDS011;60446;50.752;4.352;2023-05-10T07:17:31;6.27;;;1.37;;
72439;SDS011;60446;50.752;4.352;2023-05-10T07:19:59;5.55;;;1.67;;
72439;SDS011;60446;50.752;4.352;2023-05-10T07:22:27;7.05;;;1.52;;
72439;SDS011;60446;50.752;4.352;2023-05-10T07:24:54;10.48;;;1.38;;
72439;SDS011;60446;50.752;4.352;2023-05-10T07:27:22;7.95;;;1.75;;
72439;SDS011;60446;50.752;4.352;2023-05-10T07:29:49;6.97;;;1.47;;
72439;SDS011;60446;50.752;4.352;2023-05-10T07:32:16;6.55;;;1.42;;
72439;SDS011;60446;50.752;4.352;2023-05-10T07:34:43;8.50;;;1.60;;
72439;SDS011;60446;50.752;4.352;2023-05-10T07:37:11;7.53;;;1.20;;
72439;SDS011;60446;50.752;4.352;2023-05-10T07:39:38;6.07;;;1.25;;
72439;SDS011;60446;50.752;4.352;2023-05-10T07:42:05;6.80;;;1.20;;
72439;SDS011;60446;50.752;4.352;2023-05-10T07:44:32;7.68;;;1.50;;
72439;SDS011;60446;50.752;4.352;2023-05-10T07:46:59;5.57;;;1.15;;
72439;SDS011;60446;50.752;4.352;2023-05-10T07:49:29;6.60;;;1.40;;
72439;SDS011;60446;50.752;4.352;2023-05-10T07:51:56;4.93;;;1.00;;
72439;SDS011;60446;50.752;4.352;2023-05-10T07:54:23;5.63;;;1.37;;
72439;SDS011;60446;50.752;4.352;2023-05-10T07:56:50;7.13;;;1.27;;
72439;SDS011;60446;50.752;4.352;2023-05-10T07:59:18;5.10;;;1.17;;
72439;SDS011;60446;50.752;4.352;2023-05-10T08:01:45;5.38;;;0.80;;
72439;SDS011;60446;50.752;4.352;2023-05-10T08:04:12;6.75;;;1.33;;
72439;SDS011;60446;50.752;4.352;2023-05-10T08:06:39;4.80;;;1.00;;
72439;SDS011;60446;50.752;4.352;2023-05-10T08:09:07;3.92;;;0.80;;
72439;SDS011;60446;50.752;4.352;2023-05-10T08:11:35;5.55;;;1.20;;
72439;SDS011;60446;50.752;4.352;2023-05-10T08:14:02;5.05;;;0.93;;
72439;SDS011;60446;50.752;4.352;2023-05-10T08:16:29;5.00;;;1.10;;
72439;SDS011;60446;50.752;4.352;2023-05-10T08:18:56;5.17;;;1.33;;
72439;SDS011;60446;50.752;4.352;2023-05-10T08:21:23;4.53;;;1.13;;
72439;SDS011;60446;50.752;4.352;2023-05-10T08:23:51;5.00;;;1.00;;
72439;SDS011;60446;50.752;4.352;2023-05-10T08:26:18;5.95;;;1.20;;
72439;SDS011;60446;50.752;4.352;2023-05-10T08:28:45;4.10;;;0.73;;
72439;SDS011;60446;50.752;4.352;2023-05-10T08:31:12;4.27;;;1.10;;
72439;SDS011;60446;50.752;4.352;2023-05-10T08:33:39;7.72;;;1.73;;
72439;SDS011;60446;50.752;4.352;2023-05-10T08:36:26;5.55;;;1.55;;
72439;SDS011;60446;50.752;4.352;2023-05-10T08:38:53;5.43;;;1.15;;
72439;SDS011;60446;50.752;4.352;2023-05-10T08:41:21;5.68;;;1.48;;
72439;SDS011;60446;50.752;4.352;2023-05-10T08:43:53;4.90;;;1.20;;
72439;SDS011;60446;50.752;4.352;2023-05-10T08:46:21;5.18;;;1.20;;
72439;SDS011;60446;50.752;4.352;2023-05-10T08:48:50;9.45;;;1.30;;
72439;SDS011;60446;50.752;4.352;2023-05-10T08:51:19;9.90;;;3.08;;
72439;SDS011;60446;50.752;4.352;2023-05-10T08:53:50;9.55;;;3.15;;
72439;SDS011;60446;50.752;4.352;2023-05-10T08:56:17;8.50;;;2.77;;
72439;SDS011;60446;50.752;4.352;2023-05-10T08:58:46;6.80;;;2.10;;
72439;SDS011;60446;50.752;4.352;2023-05-10T09:01:13;7.07;;;2.45;;
72439;SDS011;60446;50.752;4.352;2023-05-10T09:03:43;11.48;;;2.88;;
72439;SDS011;60446;50.752;4.352;2023-05-10T09:06:12;6.10;;;1.70;;
72439;SDS011;60446;50.752;4.352;2023-05-10T09:08:41;5.03;;;1.60;;
72439;SDS011;60446;50.752;4.352;2023-05-10T09:11:09;5.13;;;1.10;;
72439;SDS011;60446;50.752;4.352;2023-05-10T09:13:37;6.10;;;1.80;;
72439;SDS011;60446;50.752;4.352;2023-05-10T09:16:05;8.20;;;2.38;;
72439;SDS011;60446;50.752;4.352;2023-05-10T09:18:46;5.15;;;1.02;;
72439;SDS011;60446;50.752;4.352;2023-05-10T09:21:14;6.07;;;1.50;;
72439;SDS011;60446;50.752;4.352;2023-05-10T09:23:44;5.90;;;1.52;;
72439;SDS011;60446;50.752;4.352;2023-05-10T09:26:14;6.10;;;1.83;;
72439;SDS011;60446;50.752;4.352;2023-05-10T09:28:51;4.00;;;0.98;;
72439;SDS011;60446;50.752;4.352;2023-05-10T09:31:23;6.22;;;1.92;;
72439;SDS011;60446;50.752;4.352;2023-05-10T09:33:52;4.90;;;1.20;;
72439;SDS011;60446;50.752;4.352;2023-05-10T09:36:19;6.13;;;1.83;;
72439;SDS011;60446;50.752;4.352;2023-05-10T09:38:51;5.80;;;1.70;;
72439;SDS011;60446;50.752;4.352;2023-05-10T09:41:19;6.15;;;1.50;;
72439;SDS011;60446;50.752;4.352;2023-05-10T09:43:55;4.90;;;1.25;;
72439;SDS011;60446;50.752;4.352;2023-05-10T09:46:22;4.87;;;1.20;;
72439;SDS011;60446;50.752;4.352;2023-05-10T09:48:50;5.40;;;1.30;;
72439;SDS011;60446;50.752;4.352;2023-05-10T09:51:20;5.30;;;1.30;;
72439;SDS011;60446;50.752;4.352;2023-05-10T09:56:44;5.03;;;1.38;;
72439;SDS011;60446;50.752;4.352;2023-05-10T09:59:11;6.00;;;1.43;;
72439;SDS011;60446;50.752;4.352;2023-05-10T10:01:39;6.75;;;1.48;;
72439;SDS011;60446;50.752;4.352;2023-05-10T10:04:08;5.38;;;1.42;;
72439;SDS011;60446;50.752;4.352;2023-05-10T10:06:37;5.40;;;1.38;;
72439;SDS011;60446;50.752;4.352;2023-05-10T10:09:05;4.63;;;1.10;;
72439;SDS011;60446;50.752;4.352;2023-05-10T10:11:35;5.30;;;1.70;;
72439;SDS011;60446;50.752;4.352;2023-05-10T10:14:03;5.47;;;1.67;;
72439;SDS011;60446;50.752;4.352;2023-05-10T10:16:32;5.28;;;1.70;;
72439;SDS011;60446;50.752;4.352;2023-05-10T10:18:59;4.88;;;1.60;;
72439;SDS011;60446;50.752;4.352;2023-05-10T10:21:27;6.43;;;1.52;;
72439;SDS011;60446;50.752;4.352;2023-05-10T10:23:55;4.90;;;1.53;;
72439;SDS011;60446;50.752;4.352;2023-05-10T10:26:22;6.15;;;1.33;;
72439;SDS011;60446;50.752;4.352;2023-05-10T10:34:44;4.60;;;1.30;;
72439;SDS011;60446;50.752;4.352;2023-05-10T10:37:11;6.03;;;1.30;;
72439;SDS011;60446;50.752;4.352;2023-05-10T10:39:39;4.90;;;1.27;;
72439;SDS011;60446;50.752;4.352;2023-05-10T10:42:06;5.18;;;1.40;;
72439;SDS011;60446;50.752;4.352;2023-05-10T10:44:34;4.88;;;1.20;;
72439;SDS011;60446;50.752;4.352;2023-05-10T10:49:42;5.20;;;1.57;;
72439;SDS011;60446;50.752;4.352;2023-05-10T11:03:05;6.00;;;1.67;;
72439;SDS011;60446;50.752;4.352;2023-05-10T11:08:18;5.65;;;1.70;;
72439;SDS011;60446;50.752;4.352;2023-05-10T11:11:05;8.48;;;2.00;;
72439;SDS011;60446;50.752;4.352;2023-05-10T11:13:40;6.90;;;1.60;;
72439;SDS011;60446;50.752;4.352;2023-05-10T11:16:22;5.37;;;1.60;;
72439;SDS011;60446;50.752;4.352;2023-05-10T11:18:51;5.80;;;1.98;;
72439;SDS011;60446;50.752;4.352;2023-05-10T11:21:31;5.90;;;1.90;;
72439;SDS011;60446;50.752;4.352;2023-05-10T11:24:00;5.38;;;1.77;;
72439;SDS011;60446;50.752;4.352;2023-05-10T11:26:34;6.05;;;1.95;;
72439;SDS011;60446;50.752;4.352;2023-05-10T11:29:02;5.70;;;1.50;;
72439;SDS011;60446;50.752;4.352;2023-05-10T11:31:31;5.30;;;1.90;;
72439;SDS011;60446;50.752;4.352;2023-05-10T11:33:59;5.68;;;2.00;;
72439;SDS011;60446;50.752;4.352;2023-05-10T11:36:32;6.03;;;1.83;;
72439;SDS011;60446;50.752;4.352;2023-05-10T11:39:02;5.60;;;1.50;;
72439;SDS011;60446;50.752;4.352;2023-05-10T11:41:31;6.00;;;1.70;;
72439;SDS011;60446;50.752;4.352;2023-05-10T11:43:58;7.18;;;2.00;;
72439;SDS011;60446;50.752;4.352;2023-05-10T11:46:26;5.40;;;1.52;;
72439;SDS011;60446;50.752;4.352;2023-05-10T11:48:59;5.82;;;1.70;;
72439;SDS011;60446;50.752;4.352;2023-05-10T11:51:28;5.55;;;1.80;;
72439;SDS011;60446;50.752;4.352;2023-05-10T11:53:56;6.13;;;1.50;;
72439;SDS011;60446;50.752;4.352;2023-05-10T11:56:24;5.25;;;1.60;;
72439;SDS011;60446;50.752;4.352;2023-05-10T11:58:56;5.75;;;1.95;;
72439;SDS011;60446;50.752;4.352;2023-05-10T12:01:25;4.43;;;1.33;;
72439;SDS011;60446;50.752;4.352;2023-05-10T12:03:54;6.43;;;2.20;;
72439;SDS011;60446;50.752;4.352;2023-05-10T12:06:27;6.13;;;1.97;;
72439;SDS011;60446;50.752;4.352;2023-05-10T12:08:58;5.25;;;1.42;;
72439;SDS011;60446;50.752;4.352;2023-05-10T12:11:25;7.50;;;3.05;;
72439;SDS011;60446;50.752;4.352;2023-05-10T12:13:55;6.63;;;2.53;;
72439;SDS011;60446;50.752;4.352;2023-05-10T12:16:24;4.95;;;1.80;;
72439;SDS011;60446;50.752;4.352;2023-05-10T12:18:56;6.70;;;2.20;;
72439;SDS011;60446;50.752;4.352;2023-05-10T12:21:26;6.35;;;2.58;;
72439;SDS011;60446;50.752;4.352;2023-05-10T12:24:01;6.28;;;2.47;;
72439;SDS011;60446;50.752;4.352;2023-05-10T12:26:31;5.57;;;1.70;;
72439;SDS011;60446;50.752;4.352;2023-05-10T12:29:14;4.28;;;1.40;;
72439;SDS011;60446;50.752;4.352;2023-05-10T12:31:50;4.67;;;1.50;;
72439;SDS011;60446;50.752;4.352;2023-05-10T12:34:22;6.70;;;1.80;;
72439;SDS011;60446;50.752;4.352;2023-05-10T12:37:04;7.75;;;1.58;;
72439;SDS011;60446;50.752;4.352;2023-05-10T12:39:41;4.78;;;1.30;;
72439;SDS011;60446;50.752;4.352;2023-05-10T12:42:10;5.57;;;1.50;;
72439;SDS011;60446;50.752;4.352;2023-05-10T12:44:38;5.23;;;1.27;;
72439;SDS011;60446;50.752;4.352;2023-05-10T12:47:06;6.40;;;1.70;;
72439;SDS011;60446;50.752;4.352;2023-05-10T12:49:33;6.43;;;1.92;;
72439;SDS011;60446;50.752;4.352;2023-05-10T12:52:00;5.30;;;1.60;;
72439;SDS011;60446;50.752;4.352;2023-05-10T12:54:28;8.13;;;3.70;;
72439;SDS011;60446;50.752;4.352;2023-05-10T12:56:55;6.40;;;2.03;;
72439;SDS011;60446;50.752;4.352;2023-05-10T12:59:22;7.22;;;2.13;;
72439;SDS011;60446;50.752;4.352;2023-05-10T13:02:15;7.22;;;2.38;;
72439;SDS011;60446;50.752;4.352;2023-05-10T13:04:59;8.85;;;2.25;;
72439;SDS011;60446;50.752;4.352;2023-05-10T13:07:41;6.50;;;1.92;;
72439;SDS011;60446;50.752;4.352;2023-05-10T13:10:13;7.27;;;2.67;;
72439;SDS011;60446;50.752;4.352;2023-05-10T13:12:50;5.97;;;2.00;;
72439;SDS011;60446;50.752;4.352;2023-05-10T13:15:58;7.38;;;2.25;;
72439;SDS011;60446;50.752;4.352;2023-05-10T13:18:25;8.20;;;2.40;;
72439;SDS011;60446;50.752;4.352;2023-05-10T13:20:57;5.68;;;1.77;;
72439;SDS011;60446;50.752;4.352;2023-05-10T13:23:32;7.57;;;1.90;;
72439;SDS011;60446;50.752;4.352;2023-05-10T13:26:04;6.45;;;1.88;;
72439;SDS011;60446;50.752;4.352;2023-05-10T13:29:10;6.07;;;2.00;;
72439;SDS011;60446;50.752;4.352;2023-05-10T13:31:44;5.75;;;1.75;;
72439;SDS011;60446;50.752;4.352;2023-05-10T13:34:21;7.15;;;1.88;;
72439;SDS011;60446;50.752;4.352;2023-05-10T13:36:59;7.77;;;1.80;;
72439;SDS011;60446;50.752;4.352;2023-05-10T13:39:42;6.95;;;1.65;;
72439;SDS011;60446;50.752;4.352;2023-05-10T13:42:11;5.80;;;1.88;;
72439;SDS011;60446;50.752;4.352;2023-05-10T13:44:56;8.95;;;2.17;;
72439;SDS011;60446;50.752;4.352;2023-05-10T13:47:37;7.68;;;2.15;;
72439;SDS011;60446;50.752;4.352;2023-05-10T13:50:04;8.07;;;2.23;;
72439;SDS011;60446;50.752;4.352;2023-05-10T13:52:32;5.88;;;1.85;;
72439;SDS011;60446;50.752;4.352;2023-05-10T13:55:02;8.52;;;2.80;;
72439;SDS011;60446;50.752;4.352;2023-05-10T13:57:32;9.02;;;2.97;;
72439;SDS011;60446;50.752;4.352;2023-05-10T14:00:02;21.63;;;9.10;;
72439;SDS011;60446;50.752;4.352;2023-05-10T14:02:33;11.07;;;3.20;;
72439;SDS011;60446;50.752;4.352;2023-05-10T14:05:01;9.68;;;3.13;;
72439;SDS011;60446;50.752;4.352;2023-05-10T14:07:28;8.70;;;3.15;;
72439;SDS011;60446;50.752;4.352;2023-05-10T14:09:58;9.23;;;3.17;;
72439;SDS011;60446;50.752;4.352;2023-05-10T14:12:26;8.75;;;3.47;;
72439;SDS011;60446;50.752;4.352;2023-05-10T14:14:54;8.37;;;2.80;;
72439;SDS011;60446;50.752;4.352;2023-05-10T14:17:21;7.95;;;3.25;;
72439;SDS011;60446;50.752;4.352;2023-05-10T14:19:49;10.48;;;3.70;;
72439;SDS011;60446;50.752;4.352;2023-05-10T14:22:17;8.75;;;3.95;;
72439;SDS011;60446;50.752;4.352;2023-05-10T14:24:44;9.50;;;3.22;;
72439;SDS011;60446;50.752;4.352;2023-05-10T14:27:13;10.33;;;3.23;;
72439;SDS011;60446;50.752;4.352;2023-05-10T14:29:41;9.95;;;3.17;;
72439;SDS011;60446;50.752;4.352;2023-05-10T14:32:11;11.02;;;4.30;;
72439;SDS011;60446;50.752;4.352;2023-05-10T14:34:39;10.55;;;4.15;;
72439;SDS011;60446;50.752;4.352;2023-05-10T14:37:06;12.35;;;4.07;;
72439;SDS011;60446;50.752;4.352;2023-05-10T14:39:33;11.23;;;3.63;;
72439;SDS011;60446;50.752;4.352;2023-05-10T14:42:04;11.15;;;3.42;;
72439;SDS011;60446;50.752;4.352;2023-05-10T14:44:32;9.40;;;3.05;;
72439;SDS011;60446;50.752;4.352;2023-05-10T14:47:00;8.95;;;3.33;;
72439;SDS011;60446;50.752;4.352;2023-05-10T14:49:27;10.73;;;3.63;;
72439;SDS011;60446;50.752;4.352;2023-05-10T14:51:55;12.80;;;4.60;;
72439;SDS011;60446;50.752;4.352;2023-05-10T14:54:22;13.38;;;4.50;;
72439;SDS011;60446;50.752;4.352;2023-05-10T14:56:50;13.25;;;4.10;;
72439;SDS011;60446;50.752;4.352;2023-05-10T14:59:17;13.38;;;5.00;;
72439;SDS011;60446;50.752;4.352;2023-05-10T15:01:44;12.90;;;4.88;;
72439;SDS011;60446;50.752;4.352;2023-05-10T15:04:12;12.70;;;4.80;;
72439;SDS011;60446;50.752;4.352;2023-05-10T15:06:40;13.68;;;4.97;;
72439;SDS011;60446;50.752;4.352;2023-05-10T15:09:07;14.15;;;4.78;;
72439;SDS011;60446;50.752;4.352;2023-05-10T15:11:35;12.95;;;4.78;;
72439;SDS011;60446;50.752;4.352;2023-05-10T15:14:02;12.80;;;5.25;;
72439;SDS011;60446;50.752;4.352;2023-05-10T15:16:29;12.53;;;4.40;;
72439;SDS011;60446;50.752;4.352;2023-05-10T15:19:01;13.02;;;4.93;;
72439;SDS011;60446;50.752;4.352;2023-05-10T15:21:29;12.73;;;5.28;;
72439;SDS011;60446;50.752;4.352;2023-05-10T15:24:01;10.73;;;4.45;;
72439;SDS011;60446;50.752;4.352;2023-05-10T15:26:28;11.80;;;4.30;;
72439;SDS011;60446;50.752;4.352;2023-05-10T15:28:55;10.00;;;3.63;;
72439;SDS011;60446;50.752;4.352;2023-05-10T15:31:22;13.15;;;4.65;;
72439;SDS011;60446;50.752;4.352;2023-05-10T15:33:50;10.52;;;4.07;;
72439;SDS011;60446;50.752;4.352;2023-05-10T15:36:17;9.65;;;3.72;;
72439;SDS011;60446;50.752;4.352;2023-05-10T15:38:44;12.50;;;4.20;;
72439;SDS011;60446;50.752;4.352;2023-05-10T15:41:11;9.33;;;3.83;;
72439;SDS011;60446;50.752;4.352;2023-05-10T15:43:38;8.82;;;3.22;;